sensor_id;sensor_type;location;lat;lon;timestamp;P1;durP1;ratioP1;P2;durP2;ratioP2
45842;SDS011;31563;51.744;8.252;2023-05-14T00:02:06;3.38;;;3.08;;
45842;SDS011;31563;51.744;8.252;2023-05-14T00:04:34;3.55;;;3.25;;
45842;SDS011;31563;51.744;8.252;2023-05-14T00:07:02;3.58;;;3.28;;
45842;SDS011;31563;51.744;8.252;2023-05-14T00:09:31;3.05;;;2.83;;
45842;SDS011;31563;51.744;8.252;2023-05-14T00:12:02;4.55;;;3.20;;
45842;SDS011;31563;51.744;8.252;2023-05-14T00:14:30;2.90;;;2.53;;
45842;SDS011;31563;51.744;8.252;2023-05-14T00:16:58;3.47;;;3.17;;
45842;SDS011;31563;51.744;8.252;2023-05-14T00:19:26;3.42;;;3.13;;
45842;SDS011;31563;51.744;8.252;2023-05-14T00:21:54;3.47;;;3.17;;
45842;SDS011;31563;51.744;8.252;2023-05-14T00:24:22;3.88;;;3.20;;
45842;SDS011;31563;51.744;8.252;2023-05-14T00:26:51;3.72;;;3.38;;
45842;SDS011;31563;51.744;8.252;2023-05-14T00:29:20;3.58;;;3.20;;
45842;SDS011;31563;51.744;8.252;2023-05-14T00:31:48;4.13;;;3.50;;
45842;SDS011;31563;51.744;8.252;2023-05-14T00:34:16;3.80;;;3.50;;
45842;SDS011;31563;51.744;8.252;2023-05-14T00:36:45;3.63;;;3.33;;
45842;SDS011;31563;51.744;8.252;2023-05-14T00:39:13;3.58;;;3.28;;
45842;SDS011;31563;51.744;8.252;2023-05-14T00:41:41;3.50;;;3.20;;
45842;SDS011;31563;51.744;8.252;2023-05-14T00:44:09;3.47;;;3.17;;
45842;SDS011;31563;51.744;8.252;2023-05-14T00:46:38;3.58;;;3.28;;
45842;SDS011;31563;51.744;8.252;2023-05-14T00:49:09;3.85;;;3.55;;
45842;SDS011;31563;51.744;8.252;2023-05-14T00:51:37;3.70;;;3.40;;
45842;SDS011;31563;51.744;8.252;2023-05-14T00:54:06;3.72;;;3.33;;
45842;SDS011;31563;51.744;8.252;2023-05-14T00:56:35;3.83;;;3.53;;
45842;SDS011;31563;51.744;8.252;2023-05-14T00:59:03;4.72;;;3.60;;
45842;SDS011;31563;51.744;8.252;2023-05-14T01:01:31;4.03;;;3.63;;
45842;SDS011;31563;51.744;8.252;2023-05-14T01:04:01;3.95;;;3.65;;
45842;SDS011;31563;51.744;8.252;2023-05-14T01:06:31;3.60;;;3.30;;
45842;SDS011;31563;51.744;8.252;2023-05-14T01:09:07;3.80;;;3.50;;
45842;SDS011;31563;51.744;8.252;2023-05-14T01:11:39;3.78;;;3.47;;
45842;SDS011;31563;51.744;8.252;2023-05-14T01:14:17;3.25;;;3.00;;
45842;SDS011;31563;51.744;8.252;2023-05-14T01:16:48;4.22;;;3.55;;
45842;SDS011;31563;51.744;8.252;2023-05-14T01:19:25;3.50;;;3.20;;
45842;SDS011;31563;51.744;8.252;2023-05-14T01:22:01;3.53;;;3.22;;
45842;SDS011;31563;51.744;8.252;2023-05-14T01:24:29;3.92;;;3.50;;
45842;SDS011;31563;51.744;8.252;2023-05-14T01:26:59;4.40;;;4.00;;
45842;SDS011;31563;51.744;8.252;2023-05-14T01:29:33;3.38;;;3.17;;
45842;SDS011;31563;51.744;8.252;2023-05-14T01:32:04;3.80;;;3.50;;
45842;SDS011;31563;51.744;8.252;2023-05-14T01:34:35;4.63;;;3.58;;
45842;SDS011;31563;51.744;8.252;2023-05-14T01:37:05;3.80;;;3.50;;
45842;SDS011;31563;51.744;8.252;2023-05-14T01:39:35;3.75;;;3.42;;
45842;SDS011;31563;51.744;8.252;2023-05-14T01:42:04;3.17;;;2.97;;
45842;SDS011;31563;51.744;8.252;2023-05-14T01:44:34;3.50;;;3.20;;
45842;SDS011;31563;51.744;8.252;2023-05-14T01:47:02;3.78;;;3.47;;
45842;SDS011;31563;51.744;8.252;2023-05-14T01:49:31;3.88;;;3.47;;
45842;SDS011;31563;51.744;8.252;2023-05-14T01:51:59;3.70;;;3.40;;
45842;SDS011;31563;51.744;8.252;2023-05-14T01:54:28;3.97;;;3.65;;
45842;SDS011;31563;51.744;8.252;2023-05-14T01:56:56;3.83;;;3.53;;
45842;SDS011;31563;51.744;8.252;2023-05-14T01:59:25;3.55;;;3.25;;
45842;SDS011;31563;51.744;8.252;2023-05-14T02:01:55;3.58;;;3.28;;
45842;SDS011;31563;51.744;8.252;2023-05-14T02:04:23;3.47;;;3.17;;
45842;SDS011;31563;51.744;8.252;2023-05-14T02:06:51;3.78;;;3.40;;
45842;SDS011;31563;51.744;8.252;2023-05-14T02:09:19;3.80;;;3.45;;
45842;SDS011;31563;51.744;8.252;2023-05-14T02:11:49;3.45;;;3.15;;
45842;SDS011;31563;51.744;8.252;2023-05-14T02:14:17;3.92;;;3.53;;
45842;SDS011;31563;51.744;8.252;2023-05-14T02:16:45;4.05;;;3.72;;
45842;SDS011;31563;51.744;8.252;2023-05-14T02:19:13;3.53;;;3.22;;
45842;SDS011;31563;51.744;8.252;2023-05-14T02:21:41;3.53;;;3.30;;
45842;SDS011;31563;51.744;8.252;2023-05-14T02:24:10;3.50;;;3.20;;
45842;SDS011;31563;51.744;8.252;2023-05-14T02:26:38;4.60;;;3.40;;
45842;SDS011;31563;51.744;8.252;2023-05-14T02:29:07;3.55;;;3.25;;
45842;SDS011;31563;51.744;8.252;2023-05-14T02:31:35;3.65;;;3.35;;
45842;SDS011;31563;51.744;8.252;2023-05-14T02:34:04;3.47;;;3.17;;
45842;SDS011;31563;51.744;8.252;2023-05-14T02:36:32;3.35;;;3.05;;
45842;SDS011;31563;51.744;8.252;2023-05-14T02:39:01;3.80;;;3.30;;
45842;SDS011;31563;51.744;8.252;2023-05-14T02:41:29;3.97;;;3.58;;
45842;SDS011;31563;51.744;8.252;2023-05-14T02:43:58;3.67;;;3.38;;
45842;SDS011;31563;51.744;8.252;2023-05-14T02:46:27;4.00;;;3.70;;
45842;SDS011;31563;51.744;8.252;2023-05-14T02:48:56;3.63;;;3.35;;
45842;SDS011;31563;51.744;8.252;2023-05-14T02:51:25;3.78;;;3.47;;
45842;SDS011;31563;51.744;8.252;2023-05-14T02:53:53;3.88;;;3.50;;
45842;SDS011;31563;51.744;8.252;2023-05-14T02:56:21;3.58;;;3.28;;
45842;SDS011;31563;51.744;8.252;2023-05-14T02:58:49;3.80;;;3.47;;
45842;SDS011;31563;51.744;8.252;2023-05-14T03:01:18;3.65;;;3.35;;
45842;SDS011;31563;51.744;8.252;2023-05-14T03:03:48;4.25;;;3.85;;
45842;SDS011;31563;51.744;8.252;2023-05-14T03:08:44;3.60;;;3.30;;
45842;SDS011;31563;51.744;8.252;2023-05-14T03:11:12;3.55;;;3.25;;
45842;SDS011;31563;51.744;8.252;2023-05-14T03:13:40;3.65;;;3.35;;
45842;SDS011;31563;51.744;8.252;2023-05-14T03:16:08;3.70;;;3.40;;
45842;SDS011;31563;51.744;8.252;2023-05-14T03:18:37;3.45;;;3.15;;
45842;SDS011;31563;51.744;8.252;2023-05-14T03:21:06;3.63;;;3.33;;
45842;SDS011;31563;51.744;8.252;2023-05-14T03:23:35;4.00;;;3.70;;
45842;SDS011;31563;51.744;8.252;2023-05-14T03:26:03;3.55;;;3.28;;
45842;SDS011;31563;51.744;8.252;2023-05-14T03:28:32;3.88;;;3.58;;
45842;SDS011;31563;51.744;8.252;2023-05-14T03:31:00;4.03;;;3.63;;
45842;SDS011;31563;51.744;8.252;2023-05-14T03:33:28;3.60;;;3.30;;
45842;SDS011;31563;51.744;8.252;2023-05-14T03:35:56;3.60;;;3.35;;
45842;SDS011;31563;51.744;8.252;2023-05-14T03:38:26;3.72;;;3.33;;
45842;SDS011;31563;51.744;8.252;2023-05-14T03:40:54;3.97;;;3.58;;
45842;SDS011;31563;51.744;8.252;2023-05-14T03:43:23;3.60;;;3.30;;
45842;SDS011;31563;51.744;8.252;2023-05-14T03:45:51;3.67;;;3.38;;
45842;SDS011;31563;51.744;8.252;2023-05-14T03:48:19;3.40;;;3.10;;
45842;SDS011;31563;51.744;8.252;2023-05-14T03:50:47;3.40;;;3.10;;
45842;SDS011;31563;51.744;8.252;2023-05-14T03:53:16;3.47;;;3.17;;
45842;SDS011;31563;51.744;8.252;2023-05-14T03:55:46;3.25;;;3.03;;
45842;SDS011;31563;51.744;8.252;2023-05-14T03:58:14;3.70;;;3.40;;
45842;SDS011;31563;51.744;8.252;2023-05-14T04:00:42;3.47;;;3.17;;
45842;SDS011;31563;51.744;8.252;2023-05-14T04:03:10;3.17;;;2.97;;
45842;SDS011;31563;51.744;8.252;2023-05-14T04:05:39;3.70;;;3.40;;
45842;SDS011;31563;51.744;8.252;2023-05-14T04:08:07;3.60;;;3.30;;
45842;SDS011;31563;51.744;8.252;2023-05-14T04:10:35;3.47;;;3.17;;
45842;SDS011;31563;51.744;8.252;2023-05-14T04:13:04;3.40;;;3.13;;
45842;SDS011;31563;51.744;8.252;2023-05-14T04:15:33;4.45;;;3.20;;
45842;SDS011;31563;51.744;8.252;2023-05-14T04:18:04;3.53;;;3.22;;
45842;SDS011;31563;51.744;8.252;2023-05-14T04:20:32;3.08;;;2.88;;
45842;SDS011;31563;51.744;8.252;2023-05-14T04:23:00;3.53;;;3.22;;
45842;SDS011;31563;51.744;8.252;2023-05-14T04:25:29;3.63;;;3.35;;
45842;SDS011;31563;51.744;8.252;2023-05-14T04:27:57;3.00;;;2.80;;
45842;SDS011;31563;51.744;8.252;2023-05-14T04:30:26;3.85;;;3.55;;
45842;SDS011;31563;51.744;8.252;2023-05-14T04:32:55;3.45;;;3.15;;
45842;SDS011;31563;51.744;8.252;2023-05-14T04:35:23;3.50;;;3.30;;
45842;SDS011;31563;51.744;8.252;2023-05-14T04:37:51;3.60;;;3.30;;
45842;SDS011;31563;51.744;8.252;2023-05-14T04:40:20;3.28;;;2.97;;
45842;SDS011;31563;51.744;8.252;2023-05-14T04:42:48;5.53;;;4.13;;
45842;SDS011;31563;51.744;8.252;2023-05-14T04:45:16;4.28;;;3.88;;
45842;SDS011;31563;51.744;8.252;2023-05-14T04:47:46;3.53;;;3.28;;
45842;SDS011;31563;51.744;8.252;2023-05-14T04:50:15;4.63;;;3.50;;
45842;SDS011;31563;51.744;8.252;2023-05-14T04:52:43;3.42;;;3.20;;
45842;SDS011;31563;51.744;8.252;2023-05-14T04:55:11;3.63;;;3.30;;
45842;SDS011;31563;51.744;8.252;2023-05-14T04:57:39;3.53;;;3.25;;
45842;SDS011;31563;51.744;8.252;2023-05-14T05:00:08;4.35;;;3.38;;
45842;SDS011;31563;51.744;8.252;2023-05-14T05:02:37;4.30;;;3.60;;
45842;SDS011;31563;51.744;8.252;2023-05-14T05:05:07;3.42;;;3.08;;
45842;SDS011;31563;51.744;8.252;2023-05-14T05:07:36;3.00;;;2.80;;
45842;SDS011;31563;51.744;8.252;2023-05-14T05:10:04;3.33;;;3.03;;
45842;SDS011;31563;51.744;8.252;2023-05-14T05:12:33;4.43;;;3.50;;
45842;SDS011;31563;51.744;8.252;2023-05-14T05:15:02;3.92;;;3.53;;
45842;SDS011;31563;51.744;8.252;2023-05-14T05:17:30;3.58;;;2.97;;
45842;SDS011;31563;51.744;8.252;2023-05-14T05:19:58;3.45;;;3.15;;
45842;SDS011;31563;51.744;8.252;2023-05-14T05:22:27;4.07;;;3.10;;
45842;SDS011;31563;51.744;8.252;2023-05-14T05:24:56;2.85;;;2.63;;
45842;SDS011;31563;51.744;8.252;2023-05-14T05:27:25;3.50;;;3.20;;
45842;SDS011;31563;51.744;8.252;2023-05-14T05:29:53;3.38;;;3.08;;
45842;SDS011;31563;51.744;8.252;2023-05-14T05:32:21;3.05;;;2.85;;
45842;SDS011;31563;51.744;8.252;2023-05-14T05:34:49;2.95;;;2.67;;
45842;SDS011;31563;51.744;8.252;2023-05-14T05:37:18;2.85;;;2.65;;
45842;SDS011;31563;51.744;8.252;2023-05-14T05:39:47;2.95;;;2.75;;
45842;SDS011;31563;51.744;8.252;2023-05-14T05:42:15;3.28;;;2.97;;
45842;SDS011;31563;51.744;8.252;2023-05-14T05:44:43;4.05;;;3.65;;
45842;SDS011;31563;51.744;8.252;2023-05-14T05:47:12;4.55;;;4.18;;
45842;SDS011;31563;51.744;8.252;2023-05-14T05:49:40;5.10;;;4.00;;
45842;SDS011;31563;51.744;8.252;2023-05-14T05:52:08;4.85;;;4.45;;
45842;SDS011;31563;51.744;8.252;2023-05-14T05:54:36;4.00;;;3.70;;
45842;SDS011;31563;51.744;8.252;2023-05-14T05:57:06;4.75;;;4.35;;
45842;SDS011;31563;51.744;8.252;2023-05-14T05:59:34;4.57;;;4.10;;
45842;SDS011;31563;51.744;8.252;2023-05-14T06:02:03;4.03;;;3.65;;
45842;SDS011;31563;51.744;8.252;2023-05-14T06:04:31;4.45;;;4.05;;
45842;SDS011;31563;51.744;8.252;2023-05-14T06:06:59;4.55;;;4.15;;
45842;SDS011;31563;51.744;8.252;2023-05-14T06:09:27;5.10;;;4.07;;
45842;SDS011;31563;51.744;8.252;2023-05-14T06:11:56;3.97;;;3.60;;
45842;SDS011;31563;51.744;8.252;2023-05-14T06:14:25;4.22;;;3.83;;
45842;SDS011;31563;51.744;8.252;2023-05-14T06:16:53;4.20;;;3.80;;
45842;SDS011;31563;51.744;8.252;2023-05-14T06:19:21;4.05;;;3.75;;
45842;SDS011;31563;51.744;8.252;2023-05-14T06:21:50;4.32;;;3.38;;
45842;SDS011;31563;51.744;8.252;2023-05-14T06:24:18;3.78;;;3.25;;
45842;SDS011;31563;51.744;8.252;2023-05-14T06:26:46;3.88;;;3.15;;
45842;SDS011;31563;51.744;8.252;2023-05-14T06:29:15;4.18;;;3.25;;
45842;SDS011;31563;51.744;8.252;2023-05-14T06:31:44;5.13;;;3.17;;
45842;SDS011;31563;51.744;8.252;2023-05-14T06:34:12;3.63;;;3.33;;
45842;SDS011;31563;51.744;8.252;2023-05-14T06:36:41;5.25;;;3.22;;
45842;SDS011;31563;51.744;8.252;2023-05-14T06:39:09;3.70;;;3.40;;
45842;SDS011;31563;51.744;8.252;2023-05-14T06:41:37;3.67;;;3.40;;
45842;SDS011;31563;51.744;8.252;2023-05-14T06:44:05;3.38;;;3.00;;
45842;SDS011;31563;51.744;8.252;2023-05-14T06:46:34;4.03;;;3.50;;
45842;SDS011;31563;51.744;8.252;2023-05-14T06:49:03;3.60;;;3.05;;
45842;SDS011;31563;51.744;8.252;2023-05-14T06:51:31;3.72;;;3.35;;
45842;SDS011;31563;51.744;8.252;2023-05-14T06:54:00;3.55;;;3.10;;
45842;SDS011;31563;51.744;8.252;2023-05-14T06:56:28;3.65;;;3.35;;
45842;SDS011;31563;51.744;8.252;2023-05-14T06:58:56;3.55;;;3.25;;
45842;SDS011;31563;51.744;8.252;2023-05-14T07:01:24;4.43;;;3.30;;
45842;SDS011;31563;51.744;8.252;2023-05-14T07:03:52;4.53;;;3.20;;
45842;SDS011;31563;51.744;8.252;2023-05-14T07:06:22;3.75;;;3.40;;
45842;SDS011;31563;51.744;8.252;2023-05-14T07:08:50;3.97;;;3.00;;
45842;SDS011;31563;51.744;8.252;2023-05-14T07:11:18;3.88;;;3.08;;
45842;SDS011;31563;51.744;8.252;2023-05-14T07:13:47;4.80;;;3.00;;
45842;SDS011;31563;51.744;8.252;2023-05-14T07:16:15;3.30;;;3.00;;
45842;SDS011;31563;51.744;8.252;2023-05-14T07:18:43;3.70;;;2.72;;
45842;SDS011;31563;51.744;8.252;2023-05-14T07:21:12;4.05;;;3.20;;
45842;SDS011;31563;51.744;8.252;2023-05-14T07:23:41;3.35;;;3.05;;
45842;SDS011;31563;51.744;8.252;2023-05-14T07:26:09;4.25;;;3.50;;
45842;SDS011;31563;51.744;8.252;2023-05-14T07:28:37;3.63;;;3.33;;
45842;SDS011;31563;51.744;8.252;2023-05-14T07:31:06;3.42;;;2.97;;
45842;SDS011;31563;51.744;8.252;2023-05-14T07:33:34;3.20;;;3.00;;
45842;SDS011;31563;51.744;8.252;2023-05-14T07:36:03;3.35;;;3.05;;
45842;SDS011;31563;51.744;8.252;2023-05-14T07:38:31;3.17;;;2.90;;
45842;SDS011;31563;51.744;8.252;2023-05-14T07:41:01;3.65;;;3.35;;
45842;SDS011;31563;51.744;8.252;2023-05-14T07:43:29;3.75;;;3.20;;
45842;SDS011;31563;51.744;8.252;2023-05-14T07:45:57;3.47;;;3.03;;
45842;SDS011;31563;51.744;8.252;2023-05-14T07:48:25;3.58;;;3.03;;
45842;SDS011;31563;51.744;8.252;2023-05-14T07:50:54;3.38;;;3.10;;
45842;SDS011;31563;51.744;8.252;2023-05-14T07:53:22;3.45;;;3.15;;
45842;SDS011;31563;51.744;8.252;2023-05-14T07:55:51;3.35;;;3.13;;
45842;SDS011;31563;51.744;8.252;2023-05-14T07:58:21;3.10;;;2.90;;
45842;SDS011;31563;51.744;8.252;2023-05-14T08:00:50;3.80;;;3.50;;
45842;SDS011;31563;51.744;8.252;2023-05-14T08:03:18;3.55;;;3.25;;
45842;SDS011;31563;51.744;8.252;2023-05-14T08:05:46;3.63;;;3.33;;
45842;SDS011;31563;51.744;8.252;2023-05-14T08:08:15;3.33;;;3.03;;
45842;SDS011;31563;51.744;8.252;2023-05-14T08:10:43;3.70;;;3.40;;
45842;SDS011;31563;51.744;8.252;2023-05-14T08:13:11;3.58;;;3.30;;
45842;SDS011;31563;51.744;8.252;2023-05-14T08:15:40;3.58;;;3.28;;
45842;SDS011;31563;51.744;8.252;2023-05-14T08:18:08;4.45;;;2.88;;
45842;SDS011;31563;51.744;8.252;2023-05-14T08:20:37;2.72;;;2.53;;
45842;SDS011;31563;51.744;8.252;2023-05-14T08:23:05;3.20;;;2.97;;
45842;SDS011;31563;51.744;8.252;2023-05-14T08:25:34;2.75;;;2.55;;
45842;SDS011;31563;51.744;8.252;2023-05-14T08:28:02;3.33;;;2.83;;
45842;SDS011;31563;51.744;8.252;2023-05-14T08:30:31;2.80;;;2.60;;
45842;SDS011;31563;51.744;8.252;2023-05-14T08:33:01;3.13;;;2.83;;
45842;SDS011;31563;51.744;8.252;2023-05-14T08:37:57;3.38;;;2.50;;
45842;SDS011;31563;51.744;8.252;2023-05-14T08:40:25;8.27;;;2.70;;
45842;SDS011;31563;51.744;8.252;2023-05-14T08:42:53;12.50;;;2.75;;
45842;SDS011;31563;51.744;8.252;2023-05-14T08:45:26;5.70;;;2.92;;
45842;SDS011;31563;51.744;8.252;2023-05-14T08:48:00;8.07;;;2.53;;
45842;SDS011;31563;51.744;8.252;2023-05-14T08:50:34;4.63;;;2.75;;
45842;SDS011;31563;51.744;8.252;2023-05-14T08:53:02;4.03;;;2.55;;
45842;SDS011;31563;51.744;8.252;2023-05-14T08:55:31;4.00;;;2.38;;
45842;SDS011;31563;51.744;8.252;2023-05-14T08:58:00;4.80;;;2.20;;
45842;SDS011;31563;51.744;8.252;2023-05-14T09:00:28;3.60;;;2.13;;
45842;SDS011;31563;51.744;8.252;2023-05-14T09:02:56;3.38;;;2.00;;
45842;SDS011;31563;51.744;8.252;2023-05-14T09:05:27;2.40;;;2.00;;
45842;SDS011;31563;51.744;8.252;2023-05-14T09:10:23;3.15;;;1.90;;
45842;SDS011;31563;51.744;8.252;2023-05-14T09:12:52;3.80;;;2.67;;
45842;SDS011;31563;51.744;8.252;2023-05-14T09:15:20;3.88;;;3.17;;
45842;SDS011;31563;51.744;8.252;2023-05-14T09:17:49;2.80;;;2.55;;
45842;SDS011;31563;51.744;8.252;2023-05-14T09:20:18;4.45;;;2.38;;
45842;SDS011;31563;51.744;8.252;2023-05-14T09:25:24;6.43;;;2.50;;
45842;SDS011;31563;51.744;8.252;2023-05-14T09:27:53;2.88;;;2.35;;
45842;SDS011;31563;51.744;8.252;2023-05-14T09:30:24;2.65;;;2.40;;
45842;SDS011;31563;51.744;8.252;2023-05-14T09:32:55;3.83;;;2.28;;
45842;SDS011;31563;51.744;8.252;2023-05-14T09:35:23;4.10;;;2.80;;
45842;SDS011;31563;51.744;8.252;2023-05-14T09:37:53;4.38;;;2.22;;
45842;SDS011;31563;51.744;8.252;2023-05-14T09:40:22;2.17;;;1.95;;
45842;SDS011;31563;51.744;8.252;2023-05-14T09:42:51;3.15;;;2.30;;
45842;SDS011;31563;51.744;8.252;2023-05-14T09:45:19;3.13;;;2.20;;
45842;SDS011;31563;51.744;8.252;2023-05-14T09:47:47;1.88;;;1.67;;
45842;SDS011;31563;51.744;8.252;2023-05-14T09:50:15;2.40;;;1.60;;
45842;SDS011;31563;51.744;8.252;2023-05-14T09:52:43;2.72;;;1.83;;
45842;SDS011;31563;51.744;8.252;2023-05-14T09:55:13;5.68;;;2.10;;
45842;SDS011;31563;51.744;8.252;2023-05-14T09:57:42;3.13;;;2.00;;
45842;SDS011;31563;51.744;8.252;2023-05-14T10:00:10;3.13;;;2.08;;
45842;SDS011;31563;51.744;8.252;2023-05-14T10:02:39;3.28;;;2.08;;
45842;SDS011;31563;51.744;8.252;2023-05-14T10:05:10;3.85;;;1.77;;
45842;SDS011;31563;51.744;8.252;2023-05-14T10:07:41;5.72;;;2.20;;
45842;SDS011;31563;51.744;8.252;2023-05-14T10:10:15;3.25;;;1.98;;
45842;SDS011;31563;51.744;8.252;2023-05-14T10:12:48;2.83;;;1.63;;
45842;SDS011;31563;51.744;8.252;2023-05-14T10:15:19;3.92;;;1.83;;
45842;SDS011;31563;51.744;8.252;2023-05-14T10:17:53;2.85;;;1.65;;
45842;SDS011;31563;51.744;8.252;2023-05-14T10:20:25;2.97;;;1.63;;
45842;SDS011;31563;51.744;8.252;2023-05-14T10:22:54;3.00;;;2.03;;
45842;SDS011;31563;51.744;8.252;2023-05-14T10:25:24;2.80;;;1.65;;
45842;SDS011;31563;51.744;8.252;2023-05-14T10:27:53;2.13;;;1.60;;
45842;SDS011;31563;51.744;8.252;2023-05-14T10:30:22;2.10;;;1.47;;
45842;SDS011;31563;51.744;8.252;2023-05-14T10:33:04;2.28;;;1.70;;
45842;SDS011;31563;51.744;8.252;2023-05-14T10:38:26;2.65;;;2.00;;
45842;SDS011;31563;51.744;8.252;2023-05-14T10:40:56;4.15;;;1.80;;
45842;SDS011;31563;51.744;8.252;2023-05-14T10:43:27;2.22;;;1.60;;
45842;SDS011;31563;51.744;8.252;2023-05-14T10:45:56;2.03;;;1.85;;
45842;SDS011;31563;51.744;8.252;2023-05-14T10:48:25;1.70;;;1.40;;
45842;SDS011;31563;51.744;8.252;2023-05-14T10:50:54;2.55;;;1.65;;
45842;SDS011;31563;51.744;8.252;2023-05-14T10:56:01;4.80;;;1.50;;
45842;SDS011;31563;51.744;8.252;2023-05-14T10:58:31;1.65;;;1.20;;
45842;SDS011;31563;51.744;8.252;2023-05-14T11:01:01;1.27;;;1.15;;
45842;SDS011;31563;51.744;8.252;2023-05-14T11:03:31;3.83;;;1.30;;
45842;SDS011;31563;51.744;8.252;2023-05-14T11:06:06;2.42;;;1.27;;
45842;SDS011;31563;51.744;8.252;2023-05-14T11:08:35;1.35;;;1.17;;
45842;SDS011;31563;51.744;8.252;2023-05-14T11:11:05;2.30;;;1.60;;
45842;SDS011;31563;51.744;8.252;2023-05-14T11:13:35;3.28;;;1.25;;
45842;SDS011;31563;51.744;8.252;2023-05-14T11:16:03;2.17;;;1.38;;
45842;SDS011;31563;51.744;8.252;2023-05-14T11:18:35;1.20;;;1.10;;
45842;SDS011;31563;51.744;8.252;2023-05-14T11:21:06;1.33;;;1.23;;
45842;SDS011;31563;51.744;8.252;2023-05-14T11:23:34;1.27;;;1.10;;
45842;SDS011;31563;51.744;8.252;2023-05-14T11:26:02;1.33;;;1.17;;
45842;SDS011;31563;51.744;8.252;2023-05-14T11:28:32;1.40;;;1.20;;
45842;SDS011;31563;51.744;8.252;2023-05-14T11:31:00;1.20;;;1.10;;
45842;SDS011;31563;51.744;8.252;2023-05-14T11:33:30;1.33;;;1.20;;
45842;SDS011;31563;51.744;8.252;2023-05-14T11:35:59;2.72;;;1.23;;
45842;SDS011;31563;51.744;8.252;2023-05-14T11:38:27;1.23;;;1.10;;
45842;SDS011;31563;51.744;8.252;2023-05-14T11:40:56;1.40;;;1.30;;
45842;SDS011;31563;51.744;8.252;2023-05-14T11:43:25;1.10;;;1.00;;
45842;SDS011;31563;51.744;8.252;2023-05-14T11:45:56;1.92;;;1.30;;
45842;SDS011;31563;51.744;8.252;2023-05-14T11:48:24;1.20;;;1.00;;
45842;SDS011;31563;51.744;8.252;2023-05-14T11:50:52;1.30;;;1.17;;
45842;SDS011;31563;51.744;8.252;2023-05-14T11:53:23;1.48;;;1.20;;
45842;SDS011;31563;51.744;8.252;2023-05-14T11:55:53;1.10;;;1.00;;
45842;SDS011;31563;51.744;8.252;2023-05-14T11:58:23;1.67;;;1.27;;
45842;SDS011;31563;51.744;8.252;2023-05-14T12:00:51;1.87;;;1.27;;
45842;SDS011;31563;51.744;8.252;2023-05-14T12:03:23;1.60;;;1.30;;
45842;SDS011;31563;51.744;8.252;2023-05-14T12:05:55;1.40;;;1.30;;
45842;SDS011;31563;51.744;8.252;2023-05-14T12:08:25;1.30;;;1.10;;
45842;SDS011;31563;51.744;8.252;2023-05-14T12:10:54;1.33;;;1.23;;
45842;SDS011;31563;51.744;8.252;2023-05-14T12:13:24;1.40;;;1.30;;
45842;SDS011;31563;51.744;8.252;2023-05-14T12:15:53;1.17;;;1.08;;
45842;SDS011;31563;51.744;8.252;2023-05-14T12:18:24;1.40;;;1.27;;
45842;SDS011;31563;51.744;8.252;2023-05-14T12:20:54;1.40;;;1.17;;
45842;SDS011;31563;51.744;8.252;2023-05-14T12:23:26;1.25;;;1.15;;
45842;SDS011;31563;51.744;8.252;2023-05-14T12:26:00;1.35;;;1.25;;
45842;SDS011;31563;51.744;8.252;2023-05-14T12:28:29;1.88;;;1.02;;
45842;SDS011;31563;51.744;8.252;2023-05-14T12:30:58;1.00;;;0.97;;
45842;SDS011;31563;51.744;8.252;2023-05-14T12:33:27;5.40;;;1.50;;
45842;SDS011;31563;51.744;8.252;2023-05-14T12:35:55;1.52;;;0.98;;
45842;SDS011;31563;51.744;8.252;2023-05-14T12:38:45;1.50;;;1.40;;
45842;SDS011;31563;51.744;8.252;2023-05-14T12:41:13;1.42;;;1.15;;
45842;SDS011;31563;51.744;8.252;2023-05-14T12:43:41;3.33;;;1.33;;
45842;SDS011;31563;51.744;8.252;2023-05-14T12:46:10;1.70;;;1.20;;
45842;SDS011;31563;51.744;8.252;2023-05-14T12:48:40;1.08;;;1.00;;
45842;SDS011;31563;51.744;8.252;2023-05-14T12:51:08;1.35;;;1.25;;
45842;SDS011;31563;51.744;8.252;2023-05-14T12:53:36;1.67;;;1.10;;
45842;SDS011;31563;51.744;8.252;2023-05-14T12:56:05;2.42;;;1.30;;
45842;SDS011;31563;51.744;8.252;2023-05-14T12:58:33;3.38;;;1.15;;
45842;SDS011;31563;51.744;8.252;2023-05-14T13:01:01;2.28;;;1.30;;
45842;SDS011;31563;51.744;8.252;2023-05-14T13:03:29;1.42;;;1.25;;
45842;SDS011;31563;51.744;8.252;2023-05-14T13:05:59;1.20;;;1.10;;
45842;SDS011;31563;51.744;8.252;2023-05-14T13:08:27;1.33;;;1.10;;
45842;SDS011;31563;51.744;8.252;2023-05-14T13:10:56;1.47;;;1.37;;
45842;SDS011;31563;51.744;8.252;2023-05-14T13:13:24;1.55;;;1.45;;
45842;SDS011;31563;51.744;8.252;2023-05-14T13:15:52;2.38;;;1.75;;
45842;SDS011;31563;51.744;8.252;2023-05-14T13:18:20;1.33;;;1.08;;
45842;SDS011;31563;51.744;8.252;2023-05-14T13:20:48;1.80;;;1.30;;
45842;SDS011;31563;51.744;8.252;2023-05-14T13:23:18;1.20;;;1.10;;
45842;SDS011;31563;51.744;8.252;2023-05-14T13:25:46;1.48;;;1.38;;
45842;SDS011;31563;51.744;8.252;2023-05-14T13:28:15;2.73;;;1.50;;
45842;SDS011;31563;51.744;8.252;2023-05-14T13:30:44;2.45;;;1.25;;
45842;SDS011;31563;51.744;8.252;2023-05-14T13:33:31;2.50;;;1.30;;
45842;SDS011;31563;51.744;8.252;2023-05-14T13:35:59;2.17;;;1.20;;
45842;SDS011;31563;51.744;8.252;2023-05-14T13:38:29;1.75;;;1.52;;
45842;SDS011;31563;51.744;8.252;2023-05-14T13:40:57;2.50;;;1.00;;
45842;SDS011;31563;51.744;8.252;2023-05-14T13:43:28;3.53;;;1.20;;
45842;SDS011;31563;51.744;8.252;2023-05-14T13:45:57;2.40;;;0.90;;
45842;SDS011;31563;51.744;8.252;2023-05-14T13:48:25;4.15;;;0.70;;
45842;SDS011;31563;51.744;8.252;2023-05-14T13:50:53;3.17;;;1.50;;
45842;SDS011;31563;51.744;8.252;2023-05-14T13:53:22;3.45;;;1.80;;
45842;SDS011;31563;51.744;8.252;2023-05-14T13:55:52;3.40;;;1.70;;
45842;SDS011;31563;51.744;8.252;2023-05-14T13:58:23;5.50;;;1.73;;
45842;SDS011;31563;51.744;8.252;2023-05-14T14:00:52;4.07;;;1.40;;
45842;SDS011;31563;51.744;8.252;2023-05-14T14:03:20;2.72;;;1.38;;
45842;SDS011;31563;51.744;8.252;2023-05-14T14:05:48;4.85;;;1.70;;
45842;SDS011;31563;51.744;8.252;2023-05-14T14:08:16;2.13;;;1.10;;
45842;SDS011;31563;51.744;8.252;2023-05-14T14:10:49;2.75;;;1.30;;
45842;SDS011;31563;51.744;8.252;2023-05-14T14:13:21;3.75;;;1.40;;
45842;SDS011;31563;51.744;8.252;2023-05-14T14:15:49;2.60;;;1.30;;
45842;SDS011;31563;51.744;8.252;2023-05-14T14:18:18;1.97;;;1.20;;
45842;SDS011;31563;51.744;8.252;2023-05-14T14:20:46;2.83;;;1.35;;
45842;SDS011;31563;51.744;8.252;2023-05-14T14:23:14;3.33;;;1.40;;
45842;SDS011;31563;51.744;8.252;2023-05-14T14:25:42;2.25;;;1.25;;
45842;SDS011;31563;51.744;8.252;2023-05-14T14:28:10;1.30;;;0.98;;
45842;SDS011;31563;51.744;8.252;2023-05-14T14:30:40;1.73;;;1.23;;
45842;SDS011;31563;51.744;8.252;2023-05-14T14:33:09;3.35;;;1.30;;
45842;SDS011;31563;51.744;8.252;2023-05-14T14:35:37;3.08;;;1.20;;
45842;SDS011;31563;51.744;8.252;2023-05-14T14:38:05;2.35;;;1.27;;
45842;SDS011;31563;51.744;8.252;2023-05-14T14:40:34;1.80;;;1.00;;
45842;SDS011;31563;51.744;8.252;2023-05-14T14:43:02;2.40;;;1.07;;
45842;SDS011;31563;51.744;8.252;2023-05-14T14:45:30;1.98;;;1.27;;
45842;SDS011;31563;51.744;8.252;2023-05-14T14:50:53;1.85;;;1.00;;
45842;SDS011;31563;51.744;8.252;2023-05-14T14:53:22;1.33;;;0.82;;
45842;SDS011;31563;51.744;8.252;2023-05-14T14:58:19;2.20;;;1.00;;
45842;SDS011;31563;51.744;8.252;2023-05-14T15:00:48;2.15;;;1.00;;
45842;SDS011;31563;51.744;8.252;2023-05-14T15:03:18;1.48;;;1.05;;
45842;SDS011;31563;51.744;8.252;2023-05-14T15:08:16;1.02;;;0.88;;
45842;SDS011;31563;51.744;8.252;2023-05-14T15:10:44;1.40;;;0.87;;
45842;SDS011;31563;51.744;8.252;2023-05-14T15:13:12;1.47;;;1.30;;
45842;SDS011;31563;51.744;8.252;2023-05-14T15:15:40;2.47;;;1.00;;
45842;SDS011;31563;51.744;8.252;2023-05-14T15:18:09;1.17;;;0.80;;
45842;SDS011;31563;51.744;8.252;2023-05-14T15:20:37;1.55;;;0.80;;
45842;SDS011;31563;51.744;8.252;2023-05-14T15:23:07;3.10;;;1.10;;